Time;durP1;ratioP1;P1;durP2;ratioP2;P2;SDS_P1;SDS_P2;PMS_P1;PMS_P2;Temp;Humidity;BMP_temperature;BMP_pressure;BME280_temperature;BME280_humidity;BME280_pressure;Samples;Min_cycle;Max_cycle;Signal;HPM_P1;HPM_P2
2022/03/16 00:00:17;;;;;;;;;;;18.60;57.60;;;;;;5013804;28;1338;-69
2022/03/16 00:02:43;;;;;;;;;;;18.60;57.60;;;;;;5013949;28;1272;-69
2022/03/16 00:05:08;;;;;;;;;;;18.60;57.60;;;;;;5023531;28;1467;-69
2022/03/16 00:07:33;;;;;;;;;;;18.60;57.60;;;;;;5017307;28;1314;-69
2022/03/16 00:09:59;;;;;;;;;;;18.60;57.70;;;;;;5014777;28;1902;-68
2022/03/16 00:12:24;;;;;;;;;;;18.50;57.60;;;;;;5014609;28;1256;-69
2022/03/16 00:14:50;;;;;;;;;;;18.50;57.70;;;;;;5018896;28;1075;-69
2022/03/16 00:17:16;;;;;;;;;;;18.50;57.70;;;;;;5010426;28;1193;-68
2022/03/16 00:19:43;;;;;;;;;;;18.50;57.70;;;;;;5023672;28;1371;-69
2022/03/16 00:22:09;;;;;;;;;;;18.50;57.70;;;;;;5017543;28;1369;-69
2022/03/16 00:24:34;;;;;;;;;;;18.50;57.70;;;;;;5015134;28;1058;-69
2022/03/16 00:27:00;;;;;;;;;;;18.50;57.70;;;;;;5014376;28;1321;-69
2022/03/16 00:29:25;;;;;;;;;;;18.50;57.80;;;;;;5014596;28;1965;-69
2022/03/16 00:31:51;;;;;;;;;;;18.50;57.80;;;;;;5014455;28;1303;-69
2022/03/16 00:34:16;;;;;;;;;;;18.50;57.80;;;;;;5014439;28;1316;-68
2022/03/16 00:36:41;;;;;;;;;;;18.50;57.80;;;;;;5026133;28;1245;-69
2022/03/16 00:39:07;;;;;;;;;;;18.50;57.80;;;;;;5014744;28;1306;-69
2022/03/16 00:41:33;;;;;;;;;;;18.50;57.80;;;;;;5014357;28;1516;-69
2022/03/16 00:43:59;;;;;;;;;;;18.50;57.90;;;;;;5012973;28;1279;-69
2022/03/16 00:46:24;;;;;;;;;;;18.50;57.90;;;;;;5013213;28;1306;-68
2022/03/16 00:48:50;;;;;;;;;;;18.50;57.90;;;;;;5014284;28;1899;-69
2022/03/16 00:51:15;;;;;;;;;;;18.50;57.90;;;;;;5014256;28;1267;-69
2022/03/16 00:53:41;;;;;;;;;;;18.50;57.90;;;;;;5014785;28;1155;-69
2022/03/16 00:56:07;;;;;;;;;;;18.50;57.90;;;;;;5013562;28;1330;-69
2022/03/16 00:58:32;;;;;;;;;;;18.50;57.90;;;;;;5013329;28;1124;-68
2022/03/16 01:00:58;;;;;;;;;;;18.40;57.90;;;;;;5027971;28;1271;-69
2022/03/16 01:03:23;;;;;;;;;;;18.40;57.90;;;;;;5023932;28;1316;-69
2022/03/16 01:05:49;;;;;;;;;;;18.40;57.90;;;;;;5034327;28;1259;-68
2022/03/16 01:08:14;;;;;;;;;;;18.40;58.00;;;;;;5034094;28;1902;-68
2022/03/16 01:10:39;;;;;;;;;;;18.40;58.00;;;;;;5033831;28;1265;-69
2022/03/16 01:13:05;;;;;;;;;;;18.40;58.00;;;;;;5033432;28;1253;-69
2022/03/16 01:15:31;;;;;;;;;;;18.40;58.00;;;;;;5020053;28;1025;-68
2022/03/16 01:17:56;;;;;;;;;;;18.40;58.00;;;;;;5032187;28;1251;-68
2022/03/16 01:20:22;;;;;;;;;;;18.40;58.00;;;;;;5033652;28;1238;-69
2022/03/16 01:22:47;;;;;;;;;;;18.40;58.00;;;;;;5033043;28;1239;-69
2022/03/16 01:25:12;;;;;;;;;;;18.40;58.00;;;;;;5033111;28;1282;-69
2022/03/16 01:27:38;;;;;;;;;;;18.40;58.10;;;;;;5033008;28;1278;-69
2022/03/16 01:30:04;;;;;;;;;;;18.40;58.10;;;;;;5031589;28;1910;-69
2022/03/16 01:32:29;;;;;;;;;;;18.40;58.10;;;;;;5032624;28;1284;-69
2022/03/16 01:34:54;;;;;;;;;;;18.40;58.10;;;;;;5028909;28;1361;-68
2022/03/16 01:37:20;;;;;;;;;;;18.40;58.10;;;;;;5024621;28;1130;-68
2022/03/16 01:39:45;;;;;;;;;;;18.40;58.10;;;;;;5013317;28;1285;-69
2022/03/16 01:42:11;;;;;;;;;;;18.40;58.10;;;;;;5013360;28;1255;-69
2022/03/16 01:44:40;;;;;;;;;;;18.40;58.10;;;;;;5013386;28;1140;-69
2022/03/16 01:47:05;;;;;;;;;;;18.40;58.10;;;;;;5012113;28;1267;-69
2022/03/16 01:49:31;;;;;;;;;;;18.40;58.20;;;;;;5012961;28;1902;-69
2022/03/16 01:51:56;;;;;;;;;;;18.30;58.10;;;;;;5013424;28;1351;-69
2022/03/16 01:54:21;;;;;;;;;;;18.30;58.10;;;;;;5013265;28;1337;-68
2022/03/16 01:56:47;;;;;;;;;;;18.40;58.20;;;;;;5014044;28;1365;-69
2022/03/16 01:59:12;;;;;;;;;;;18.30;58.20;;;;;;5029664;28;1251;-68
2022/03/16 02:01:38;;;;;;;;;;;18.30;58.20;;;;;;5031402;28;1347;-68
2022/03/16 02:04:04;;;;;;;;;;;18.30;58.20;;;;;;5026790;28;1247;-68
2022/03/16 02:06:29;;;;;;;;;;;18.40;58.20;;;;;;5029425;28;1193;-67
2022/03/16 02:08:54;;;;;;;;;;;18.30;58.20;;;;;;5030458;28;1899;-69
2022/03/16 02:11:21;;;;;;;;;;;18.40;58.20;;;;;;5032112;28;1379;-69
2022/03/16 02:13:46;;;;;;;;;;;18.40;58.20;;;;;;5031387;28;1279;-69
2022/03/16 02:16:12;;;;;;;;;;;18.30;58.20;;;;;;5025980;28;1244;-67
2022/03/16 02:18:38;;;;;;;;;;;18.30;58.20;;;;;;5014069;28;1314;-68
2022/03/16 02:21:03;;;;;;;;;;;18.30;58.20;;;;;;5014897;28;1296;-67
2022/03/16 02:23:29;;;;;;;;;;;18.30;58.30;;;;;;5013863;28;1347;-67
2022/03/16 02:25:54;;;;;;;;;;;18.30;58.30;;;;;;5021483;28;1257;-67
2022/03/16 02:28:19;;;;;;;;;;;18.30;58.30;;;;;;5021529;28;1967;-68
2022/03/16 02:30:45;;;;;;;;;;;18.30;58.30;;;;;;5026913;28;1332;-67
2022/03/16 02:33:10;;;;;;;;;;;18.30;58.30;;;;;;5028467;28;1321;-67
2022/03/16 02:35:36;;;;;;;;;;;18.30;58.30;;;;;;5029208;28;1618;-68
2022/03/16 02:38:01;;;;;;;;;;;18.30;58.30;;;;;;5019964;28;1346;-68
2022/03/16 02:40:27;;;;;;;;;;;18.30;58.30;;;;;;5013647;28;1354;-68
2022/03/16 02:42:53;;;;;;;;;;;18.30;58.30;;;;;;5028346;28;1232;-68
2022/03/16 02:45:18;;;;;;;;;;;18.30;58.40;;;;;;5020834;28;1339;-67
2022/03/16 02:47:44;;;;;;;;;;;18.30;58.30;;;;;;5033363;28;1295;-68
2022/03/16 02:50:10;;;;;;;;;;;18.30;59.00;;;;;;5034740;28;1902;-68
2022/03/16 02:52:35;;;;;;;;;;;18.30;58.40;;;;;;5019355;28;1322;-68
2022/03/16 02:55:01;;;;;;;;;;;18.30;58.40;;;;;;5013868;28;1287;-68
2022/03/16 02:57:27;;;;;;;;;;;18.30;58.40;;;;;;5012465;28;1339;-70
2022/03/16 02:59:53;;;;;;;;;;;18.20;58.30;;;;;;5013040;28;1357;-70
2022/03/16 03:02:18;;;;;;;;;;;18.30;58.40;;;;;;5013413;28;1367;-69
2022/03/16 03:04:44;;;;;;;;;;;18.30;58.40;;;;;;5013384;28;1308;-70
2022/03/16 03:07:10;;;;;;;;;;;18.30;58.40;;;;;;5013546;28;1299;-69
2022/03/16 03:09:36;;;;;;;;;;;18.20;58.40;;;;;;5018994;28;1914;-70
2022/03/16 03:12:02;;;;;;;;;;;18.20;58.40;;;;;;5019289;28;1379;-70
2022/03/16 03:14:27;;;;;;;;;;;18.20;58.40;;;;;;5015101;28;1206;-70
2022/03/16 03:16:53;;;;;;;;;;;18.20;58.40;;;;;;5027671;28;1071;-69
2022/03/16 03:19:18;;;;;;;;;;;18.20;58.50;;;;;;5035750;28;1268;-69
2022/03/16 03:21:43;;;;;;;;;;;18.20;58.50;;;;;;5018064;28;1361;-68
2022/03/16 03:24:09;;;;;;;;;;;18.20;58.50;;;;;;5015069;28;1385;-67
2022/03/16 03:26:35;;;;;;;;;;;18.20;58.50;;;;;;5016270;28;1075;-68
2022/03/16 03:29:00;;;;;;;;;;;18.20;58.50;;;;;;5015749;28;1977;-69
2022/03/16 03:31:25;;;;;;;;;;;18.20;58.50;;;;;;5015807;28;1372;-68
2022/03/16 03:33:51;;;;;;;;;;;18.20;58.50;;;;;;5015951;28;1302;-68
2022/03/16 03:36:16;;;;;;;;;;;18.20;58.50;;;;;;5022956;28;1605;-68
2022/03/16 03:38:42;;;;;;;;;;;18.20;58.50;;;;;;5015972;28;1498;-67
2022/03/16 03:41:07;;;;;;;;;;;18.20;58.50;;;;;;5015677;28;1353;-68
2022/03/16 03:43:33;;;;;;;;;;;18.20;58.50;;;;;;5033255;28;1160;-68
2022/03/16 03:45:58;;;;;;;;;;;18.20;58.50;;;;;;5024070;28;1286;-68
2022/03/16 03:48:23;;;;;;;;;;;18.20;58.50;;;;;;5033306;28;1969;-67
2022/03/16 03:50:49;;;;;;;;;;;18.20;58.50;;;;;;5023937;28;1273;-67
2022/03/16 03:53:15;;;;;;;;;;;18.20;58.50;;;;;;5017251;28;1274;-67
2022/03/16 03:55:41;;;;;;;;;;;18.20;58.50;;;;;;5014825;28;1319;-67
2022/03/16 03:58:06;;;;;;;;;;;18.20;58.50;;;;;;5015450;28;1333;-67
2022/03/16 04:00:32;;;;;;;;;;;18.20;58.60;;;;;;5025588;28;1318;-68
2022/03/16 04:02:57;;;;;;;;;;;18.20;58.60;;;;;;5016100;28;1327;-67
2022/03/16 04:05:22;;;;;;;;;;;18.20;59.20;;;;;;5015612;28;1255;-68
2022/03/16 04:07:48;;;;;;;;;;;18.20;58.60;;;;;;5019711;28;1327;-67
2022/03/16 04:10:13;;;;;;;;;;;18.20;58.60;;;;;;5023092;28;1922;-67
2022/03/16 04:12:39;;;;;;;;;;;18.20;58.60;;;;;;5031353;28;1342;-67
2022/03/16 04:15:04;;;;;;;;;;;18.20;58.60;;;;;;5024592;28;1434;-67
2022/03/16 04:17:30;;;;;;;;;;;18.20;58.60;;;;;;5032578;28;1156;-68
2022/03/16 04:19:55;;;;;;;;;;;18.20;58.60;;;;;;5033865;28;1248;-67
2022/03/16 04:22:21;;;;;;;;;;;18.20;58.60;;;;;;5016754;28;1427;-69
2022/03/16 04:24:46;;;;;;;;;;;18.20;58.60;;;;;;5034694;28;884;-68
2022/03/16 04:27:12;;;;;;;;;;;18.20;58.60;;;;;;5033956;28;1248;-67
2022/03/16 04:29:37;;;;;;;;;;;18.20;58.60;;;;;;5034237;28;1918;-68
2022/03/16 04:32:03;;;;;;;;;;;18.20;58.60;;;;;;5016227;28;1221;-67
2022/03/16 04:34:28;;;;;;;;;;;18.20;58.60;;;;;;5013268;28;787;-67
2022/03/16 04:36:53;;;;;;;;;;;18.20;58.70;;;;;;5031316;28;1112;-67
2022/03/16 04:39:19;;;;;;;;;;;18.10;58.60;;;;;;5023300;28;783;-67
2022/03/16 04:41:44;;;;;;;;;;;18.20;58.70;;;;;;5026251;28;1300;-67
2022/03/16 04:44:10;;;;;;;;;;;18.10;58.60;;;;;;5024949;28;1190;-67
2022/03/16 04:46:35;;;;;;;;;;;18.10;58.60;;;;;;5020537;28;1216;-67
2022/03/16 04:49:00;;;;;;;;;;;18.10;58.70;;;;;;5023249;28;1902;-69
2022/03/16 04:51:26;;;;;;;;;;;18.20;58.70;;;;;;5030001;28;1314;-69
2022/03/16 04:53:51;;;;;;;;;;;18.20;58.60;;;;;;5033860;28;1289;-69
2022/03/16 04:56:17;;;;;;;;;;;18.20;58.60;;;;;;5033887;28;1049;-69
2022/03/16 04:58:42;;;;;;;;;;;18.20;58.50;;;;;;5022468;28;1079;-66
2022/03/16 05:01:07;;;;;;;;;;;18.30;58.40;;;;;;5024657;28;1365;-67
2022/03/16 05:03:33;;;;;;;;;;;18.40;58.40;;;;;;5019364;28;2155;-67
2022/03/16 05:05:58;;;;;;;;;;;18.50;58.20;;;;;;5031973;28;1909;-68
2022/03/16 05:08:24;;;;;;;;;;;18.60;58.00;;;;;;5033397;28;1898;-67
2022/03/16 05:10:49;;;;;;;;;;;18.70;57.70;;;;;;5031580;28;2132;-69
2022/03/16 05:13:15;;;;;;;;;;;18.90;57.50;;;;;;5032522;28;1201;-72
2022/03/16 05:15:40;;;;;;;;;;;19.00;57.20;;;;;;5034579;28;1142;-72
2022/03/16 05:18:06;;;;;;;;;;;19.10;57.00;;;;;;5034787;28;831;-71
2022/03/16 05:20:31;;;;;;;;;;;19.20;56.80;;;;;;5029935;28;1847;-68
2022/03/16 05:22:57;;;;;;;;;;;19.20;56.50;;;;;;5034146;28;1202;-67
2022/03/16 05:25:23;;;;;;;;;;;19.30;56.30;;;;;;5031898;28;780;-67
2022/03/16 05:27:48;;;;;;;;;;;19.30;56.20;;;;;;5033531;28;947;-67
2022/03/16 05:30:14;;;;;;;;;;;19.40;56.00;;;;;;5032830;28;1960;-69
2022/03/16 05:32:41;;;;;;;;;;;19.50;56.00;;;;;;5033280;28;1190;-67
2022/03/16 05:35:10;;;;;;;;;;;19.50;55.90;;;;;;5032011;28;852;-69
2022/03/16 05:37:35;;;;;;;;;;;19.50;55.80;;;;;;5032131;28;1249;-69
2022/03/16 05:40:01;;;;;;;;;;;19.50;55.80;;;;;;5032504;28;1010;-68
2022/03/16 05:42:26;;;;;;;;;;;19.50;55.70;;;;;;5048804;28;1258;-68
2022/03/16 05:44:54;;;;;;;;;;;19.50;55.70;;;;;;5052957;28;902;-71
2022/03/16 05:47:23;;;;;;;;;;;19.50;55.70;;;;;;5032836;28;1437;-70
2022/03/16 05:49:51;;;;;;;;;;;19.50;55.60;;;;;;5033079;28;1899;-70
2022/03/16 05:52:19;;;;;;;;;;;19.50;55.60;;;;;;5031430;28;1338;-70
2022/03/16 05:54:44;;;;;;;;;;;19.50;55.60;;;;;;5030581;28;2028;-69
2022/03/16 05:57:13;;;;;;;;;;;19.50;55.60;;;;;;5033125;28;1053;-69
2022/03/16 05:59:39;;;;;;;;;;;19.50;55.60;;;;;;5032790;28;898;-69
2022/03/16 06:02:05;;;;;;;;;;;19.50;55.70;;;;;;5032985;28;1311;-70
2022/03/16 06:04:30;;;;;;;;;;;19.50;55.80;;;;;;5033057;28;922;-69
2022/03/16 06:06:55;;;;;;;;;;;19.40;55.70;;;;;;5033927;28;804;-70
2022/03/16 06:09:21;;;;;;;;;;;19.50;55.80;;;;;;5032759;28;1951;-69
2022/03/16 06:11:46;;;;;;;;;;;19.40;55.80;;;;;;5032855;28;1198;-70
2022/03/16 06:14:12;;;;;;;;;;;19.50;55.90;;;;;;5033223;28;1175;-70
2022/03/16 06:16:37;;;;;;;;;;;19.50;55.90;;;;;;5032873;28;1163;-68
2022/03/16 06:19:03;;;;;;;;;;;19.50;55.90;;;;;;5032546;28;883;-70
2022/03/16 06:21:28;;;;;;;;;;;19.50;55.80;;;;;;5032684;28;1217;-69
2022/03/16 06:23:53;;;;;;;;;;;19.50;55.80;;;;;;5032695;28;718;-69
2022/03/16 06:26:19;;;;;;;;;;;19.50;55.80;;;;;;5031471;28;2188;-68
2022/03/16 06:28:44;;;;;;;;;;;19.50;55.80;;;;;;5032100;28;1902;-68
2022/03/16 06:31:10;;;;;;;;;;;19.50;55.70;;;;;;5032633;28;1264;-68
2022/03/16 06:33:35;;;;;;;;;;;19.50;55.80;;;;;;5031301;28;1144;-67
2022/03/16 06:36:01;;;;;;;;;;;19.50;55.70;;;;;;5031476;28;1076;-66
2022/03/16 06:38:26;;;;;;;;;;;19.50;55.70;;;;;;5032633;28;879;-69
2022/03/16 06:40:51;;;;;;;;;;;19.60;55.70;;;;;;5032659;28;1016;-68
2022/03/16 06:43:17;;;;;;;;;;;19.60;55.60;;;;;;5032273;28;1322;-68
2022/03/16 06:45:43;;;;;;;;;;;19.60;55.60;;;;;;5032649;28;1017;-68
2022/03/16 06:48:08;;;;;;;;;;;19.60;55.60;;;;;;5031413;28;1197;-70
2022/03/16 06:50:34;;;;;;;;;;;19.60;55.60;;;;;;5033279;28;1992;-70
2022/03/16 06:52:59;;;;;;;;;;;19.60;55.60;;;;;;5035166;28;1181;-70
2022/03/16 06:55:26;;;;;;;;;;;19.60;55.60;;;;;;5035013;28;1267;-69
2022/03/16 06:57:52;;;;;;;;;;;19.50;55.60;;;;;;5034961;28;883;-69
2022/03/16 07:00:17;;;;;;;;;;;19.50;55.60;;;;;;5035975;28;899;-69
2022/03/16 07:03:02;;;;;;;;;;;19.50;55.60;;;;;;5036160;28;1309;-69
2022/03/16 07:05:28;;;;;;;;;;;19.50;55.60;;;;;;5034987;28;859;-69
2022/03/16 07:07:54;;;;;;;;;;;19.50;55.70;;;;;;5036033;28;1025;-69
2022/03/16 07:10:20;;;;;;;;;;;19.50;55.70;;;;;;5022214;28;1903;-71
2022/03/16 07:12:45;;;;;;;;;;;19.50;55.70;;;;;;5034147;28;1313;-71
2022/03/16 07:15:10;;;;;;;;;;;19.50;55.70;;;;;;5034877;28;1083;-71
2022/03/16 07:17:36;;;;;;;;;;;19.50;55.70;;;;;;5033738;28;1222;-71
2022/03/16 07:20:03;;;;;;;;;;;19.50;55.70;;;;;;5034766;28;787;-68
2022/03/16 07:22:28;;;;;;;;;;;19.50;55.70;;;;;;5035039;28;1197;-69
2022/03/16 07:24:54;;;;;;;;;;;19.50;55.70;;;;;;5034423;28;695;-67
2022/03/16 07:27:19;;;;;;;;;;;19.50;55.80;;;;;;5033658;28;1087;-70
2022/03/16 07:29:45;;;;;;;;;;;19.50;55.80;;;;;;5034767;28;1965;-67
2022/03/16 07:32:10;;;;;;;;;;;19.50;55.80;;;;;;5026010;28;1627;-67
2022/03/16 07:34:36;;;;;;;;;;;19.50;55.80;;;;;;5033835;28;871;-68
2022/03/16 07:37:01;;;;;;;;;;;19.40;55.80;;;;;;5034190;28;1150;-69
2022/03/16 07:39:26;;;;;;;;;;;19.40;55.80;;;;;;5034081;28;1005;-70
2022/03/16 07:41:52;;;;;;;;;;;19.40;55.80;;;;;;5034546;28;1227;-66
2022/03/16 07:44:17;;;;;;;;;;;19.50;55.90;;;;;;5033185;28;1440;-66
2022/03/16 07:46:43;;;;;;;;;;;19.40;55.80;;;;;;5034514;28;1006;-66
2022/03/16 07:49:08;;;;;;;;;;;19.40;55.90;;;;;;5030330;28;1886;-67
2022/03/16 07:51:34;;;;;;;;;;;19.40;55.90;;;;;;5034714;28;1357;-67
2022/03/16 07:53:59;;;;;;;;;;;19.40;55.90;;;;;;5032234;28;1259;-68
2022/03/16 07:56:24;;;;;;;;;;;19.40;55.90;;;;;;5033088;28;1160;-68
2022/03/16 07:58:51;;;;;;;;;;;19.40;55.90;;;;;;5033205;28;879;-68
2022/03/16 08:01:16;;;;;;;;;;;19.40;56.00;;;;;;5035184;28;1226;-69
2022/03/16 08:03:42;;;;;;;;;;;19.40;56.00;;;;;;5033110;28;2014;-68
2022/03/16 08:06:07;;;;;;;;;;;19.40;56.00;;;;;;5034868;28;1205;-67
2022/03/16 08:08:32;;;;;;;;;;;19.40;56.00;;;;;;5034151;28;1867;-68
2022/03/16 08:10:59;;;;;;;;;;;19.40;56.10;;;;;;5034574;28;1293;-67
2022/03/16 08:13:24;;;;;;;;;;;19.40;56.10;;;;;;5034820;28;1150;-67
2022/03/16 08:15:50;;;;;;;;;;;19.40;56.10;;;;;;5034558;28;1243;-66
2022/03/16 08:18:15;;;;;;;;;;;19.40;56.10;;;;;;5034173;28;882;-67
2022/03/16 08:20:40;;;;;;;;;;;19.40;56.00;;;;;;5034602;28;803;-68
2022/03/16 08:23:06;;;;;;;;;;;19.40;56.00;;;;;;5034506;28;1296;-67
2022/03/16 08:25:32;;;;;;;;;;;19.50;55.90;;;;;;5034963;28;811;-67
2022/03/16 08:27:59;;;;;;;;;;;19.60;55.80;;;;;;5033381;28;1169;-68
2022/03/16 08:30:24;;;;;;;;;;;19.60;55.70;;;;;;5034285;28;1967;-68
2022/03/16 08:32:50;;;;;;;;;;;19.70;55.60;;;;;;5034796;28;1299;-68
2022/03/16 08:35:15;;;;;;;;;;;19.80;55.50;;;;;;5034546;28;902;-68
2022/03/16 08:37:41;;;;;;;;;;;19.90;55.30;;;;;;5034315;28;1245;-68
2022/03/16 08:40:07;;;;;;;;;;;19.90;55.10;;;;;;5032774;28;876;-68
2022/03/16 08:42:32;;;;;;;;;;;20.00;55.00;;;;;;5034353;28;1219;-65
2022/03/16 08:44:58;;;;;;;;;;;20.00;54.90;;;;;;5034292;28;1010;-67
2022/03/16 08:47:23;;;;;;;;;;;20.10;54.80;;;;;;5034386;28;1180;-67
2022/03/16 08:49:50;;;;;;;;;;;20.10;54.70;;;;;;5033834;28;1967;-68
2022/03/16 08:52:15;;;;;;;;;;;20.10;54.70;;;;;;5032413;28;1342;-67
2022/03/16 08:54:41;;;;;;;;;;;20.20;54.60;;;;;;5033729;28;1213;-67
2022/03/16 08:57:09;;;;;;;;;;;20.20;54.50;;;;;;5033738;28;1144;-67
2022/03/16 08:59:35;;;;;;;;;;;20.20;54.50;;;;;;5032108;28;1212;-67
2022/03/16 09:02:00;;;;;;;;;;;20.20;54.40;;;;;;5033351;28;1284;-68
2022/03/16 09:04:25;;;;;;;;;;;20.20;54.40;;;;;;5033473;28;1224;-68
2022/03/16 09:06:51;;;;;;;;;;;20.20;54.40;;;;;;5033849;28;789;-67
2022/03/16 09:09:16;;;;;;;;;;;20.20;54.40;;;;;;5033370;28;1894;-67
2022/03/16 09:11:42;;;;;;;;;;;20.20;54.40;;;;;;5033733;28;1210;-67
2022/03/16 09:14:07;;;;;;;;;;;20.10;54.40;;;;;;5033666;28;1167;-67
2022/03/16 09:16:33;;;;;;;;;;;20.10;54.30;;;;;;5033754;28;1087;-68
2022/03/16 09:18:58;;;;;;;;;;;20.10;54.40;;;;;;5033502;28;915;-67
2022/03/16 09:21:26;;;;;;;;;;;20.20;54.50;;;;;;5033397;28;1274;-66
2022/03/16 09:23:53;;;;;;;;;;;20.20;54.50;;;;;;5033572;28;1020;-67
2022/03/16 09:26:21;;;;;;;;;;;20.20;54.60;;;;;;5033461;28;800;-68
2022/03/16 09:28:46;;;;;;;;;;;20.10;54.50;;;;;;5028101;28;1969;-66
2022/03/16 09:31:12;;;;;;;;;;;20.10;54.60;;;;;;5032005;28;1266;-68
2022/03/16 09:33:37;;;;;;;;;;;20.10;54.60;;;;;;5033487;28;707;-68
2022/03/16 09:36:08;;;;;;;;;;;20.10;54.60;;;;;;5032830;28;1124;-69
2022/03/16 09:38:34;;;;;;;;;;;20.10;54.70;;;;;;5031917;28;1291;-69
2022/03/16 09:41:00;;;;;;;;;;;20.10;54.70;;;;;;5031739;28;1229;-69
2022/03/16 09:43:25;;;;;;;;;;;20.10;55.30;;;;;;5032012;28;680;-69
2022/03/16 09:45:54;;;;;;;;;;;20.10;54.80;;;;;;5033085;28;695;-69
2022/03/16 09:48:21;;;;;;;;;;;20.00;54.70;;;;;;5027563;28;1565;-70
2022/03/16 09:50:47;;;;;;;;;;;20.00;54.80;;;;;;5032091;28;1898;-68
2022/03/16 09:53:13;;;;;;;;;;;20.00;54.80;;;;;;5033302;28;1212;-69
2022/03/16 09:55:39;;;;;;;;;;;20.00;55.50;;;;;;5031765;28;1069;-68
2022/03/16 09:58:05;;;;;;;;;;;20.00;54.90;;;;;;5032922;28;859;-69
2022/03/16 10:00:30;;;;;;;;;;;20.00;54.90;;;;;;5032722;28;1054;-69
2022/03/16 10:02:59;;;;;;;;;;;20.00;55.00;;;;;;5032963;28;1227;-69
2022/03/16 10:05:25;;;;;;;;;;;20.00;55.00;;;;;;5032768;28;812;-69
2022/03/16 10:07:53;;;;;;;;;;;20.00;55.00;;;;;;5031594;28;1241;-69
2022/03/16 10:13:15;;;;;;;;;;;19.90;55.00;;;;;;5032758;28;1303;-69
2022/03/16 10:15:42;;;;;;;;;;;19.90;55.00;;;;;;5016517;28;1131;-69
2022/03/16 10:18:07;;;;;;;;;;;19.90;55.00;;;;;;5032809;28;814;-69
2022/03/16 10:20:34;;;;;;;;;;;19.90;55.10;;;;;;5032916;28;704;-69
2022/03/16 10:23:02;;;;;;;;;;;19.90;55.10;;;;;;5032696;28;1264;-69
2022/03/16 10:25:41;;;;;;;;;;;19.90;55.10;;;;;;5033488;28;784;-69
2022/03/16 10:28:14;;;;;;;;;;;19.90;55.10;;;;;;5018738;28;1378;-69
2022/03/16 10:30:48;;;;;;;;;;;19.90;55.20;;;;;;5035382;28;1906;-70
2022/03/16 10:33:15;;;;;;;;;;;19.90;55.20;;;;;;5035575;28;1229;-70
2022/03/16 10:35:56;;;;;;;;;;;19.80;55.20;;;;;;5019120;28;1247;-70
2022/03/16 10:38:22;;;;;;;;;;;19.80;55.30;;;;;;5035645;28;899;-71
2022/03/16 10:40:48;;;;;;;;;;;19.80;55.20;;;;;;5036243;28;854;-70
2022/03/16 10:48:57;;;;;;;;;;;19.70;55.20;;;;;;5036101;28;1961;-69
2022/03/16 10:51:22;;;;;;;;;;;19.70;55.30;;;;;;5028874;28;1587;-69
2022/03/16 10:53:50;;;;;;;;;;;19.70;55.40;;;;;;5036084;28;823;-70
2022/03/16 10:56:16;;;;;;;;;;;19.70;55.40;;;;;;5034772;28;851;-70
2022/03/16 10:58:42;;;;;;;;;;;19.60;55.40;;;;;;5033290;28;835;-70
2022/03/16 11:01:08;;;;;;;;;;;19.60;55.40;;;;;;5034551;28;1292;-70
2022/03/16 11:03:36;;;;;;;;;;;19.70;55.60;;;;;;5018281;28;1372;-70
2022/03/16 11:06:02;;;;;;;;;;;19.60;55.50;;;;;;5034759;28;851;-70
2022/03/16 11:08:27;;;;;;;;;;;19.60;55.60;;;;;;5029802;28;1500;-70
2022/03/16 11:10:53;;;;;;;;;;;19.60;55.60;;;;;;5035629;28;1898;-70
2022/03/16 11:13:32;;;;;;;;;;;19.60;55.70;;;;;;5035533;28;1206;-70
2022/03/16 11:15:58;;;;;;;;;;;19.50;55.70;;;;;;5034661;28;1136;-71
2022/03/16 11:18:24;;;;;;;;;;;19.50;55.80;;;;;;5035638;28;856;-71
2022/03/16 11:20:50;;;;;;;;;;;19.50;55.90;;;;;;5034520;28;864;-72
2022/03/16 11:26:04;;;;;;;;;;;19.50;55.90;;;;;;5050716;28;2252;-69
2022/03/16 11:28:32;;;;;;;;;;;19.40;55.90;;;;;;5053575;28;1461;-71
2022/03/16 11:30:58;;;;;;;;;;;19.40;56.00;;;;;;5052789;28;1808;-70
2022/03/16 11:33:24;;;;;;;;;;;19.40;56.00;;;;;;5051320;28;1962;-70
2022/03/16 11:35:50;;;;;;;;;;;19.40;56.10;;;;;;5051096;28;2087;-70
2022/03/16 11:38:16;;;;;;;;;;;19.40;56.10;;;;;;5052482;28;1637;-72
2022/03/16 11:40:49;;;;;;;;;;;19.30;56.10;;;;;;5030589;28;1907;-72
2022/03/16 11:43:18;;;;;;;;;;;19.30;56.20;;;;;;5049876;28;1626;-69
2022/03/16 11:45:46;;;;;;;;;;;19.30;56.20;;;;;;5052618;28;2117;-72
2022/03/16 11:48:28;;;;;;;;;;;19.30;56.30;;;;;;5053391;28;1372;-72
2022/03/16 11:53:46;;;;;;;;;;;19.30;56.40;;;;;;5044067;28;1922;-72
2022/03/16 11:56:21;;;;;;;;;;;19.20;56.40;;;;;;5034059;28;800;-71
2022/03/16 11:58:53;;;;;;;;;;;19.20;56.40;;;;;;5034625;28;1981;-70
2022/03/16 12:01:31;;;;;;;;;;;19.20;56.50;;;;;;5045867;28;2019;-71
2022/03/16 12:04:11;;;;;;;;;;;19.20;56.50;;;;;;5053888;28;1188;-72
2022/03/16 12:06:54;;;;;;;;;;;19.20;56.60;;;;;;5052944;28;1963;-72
2022/03/16 12:09:31;;;;;;;;;;;19.20;56.60;;;;;;5034171;28;1991;-71
2022/03/16 12:15:02;;;;;;;;;;;19.10;56.70;;;;;;5048676;28;1722;-70
2022/03/16 12:17:27;;;;;;;;;;;19.10;56.70;;;;;;5052772;28;1485;-72
2022/03/16 12:20:07;;;;;;;;;;;19.10;56.80;;;;;;5050111;28;1982;-71
2022/03/16 12:22:36;;;;;;;;;;;19.10;56.80;;;;;;5034414;28;1647;-71
2022/03/16 12:25:21;;;;;;;;;;;19.10;56.90;;;;;;5052539;28;1262;-70
2022/03/16 12:30:35;;;;;;;;;;;19.10;56.80;;;;;;5046460;28;2088;-72
2022/03/16 12:33:02;;;;;;;;;;;19.10;56.70;;;;;;5052385;28;1557;-70
2022/03/16 12:35:32;;;;;;;;;;;19.20;56.60;;;;;;5041405;28;1682;-72
2022/03/16 12:37:57;;;;;;;;;;;19.30;56.50;;;;;;5043043;28;2107;-70
2022/03/16 12:40:23;;;;;;;;;;;19.40;56.40;;;;;;5032637;28;966;-68
2022/03/16 12:42:53;;;;;;;;;;;19.50;56.30;;;;;;5051632;28;1979;-68
2022/03/16 12:45:19;;;;;;;;;;;19.60;56.10;;;;;;5039989;28;1948;-67
2022/03/16 12:47:44;;;;;;;;;;;19.60;55.80;;;;;;5051108;28;1979;-68
2022/03/16 12:50:13;;;;;;;;;;;19.70;55.60;;;;;;5032232;28;2117;-68
2022/03/16 12:52:39;;;;;;;;;;;19.90;55.50;;;;;;5046544;28;2125;-68
2022/03/16 12:55:08;;;;;;;;;;;19.90;55.20;;;;;;5051461;28;898;-68
2022/03/16 12:57:34;;;;;;;;;;;20.00;55.10;;;;;;5046422;28;1939;-68
2022/03/16 13:00:04;;;;;;;;;;;20.10;54.90;;;;;;5036472;28;2212;-69
2022/03/16 13:02:31;;;;;;;;;;;20.10;54.70;;;;;;5031105;28;1310;-68
2022/03/16 13:04:57;;;;;;;;;;;20.20;54.60;;;;;;5048457;28;858;-68
2022/03/16 13:07:23;;;;;;;;;;;20.30;54.40;;;;;;5032474;28;883;-70
2022/03/16 13:09:48;;;;;;;;;;;20.30;54.30;;;;;;5031667;28;1906;-68
2022/03/16 13:12:17;;;;;;;;;;;20.30;54.30;;;;;;5032215;28;1287;-69
2022/03/16 13:14:44;;;;;;;;;;;20.40;54.20;;;;;;5051340;28;1430;-69
2022/03/16 13:17:11;;;;;;;;;;;20.40;54.20;;;;;;5051293;28;787;-68
2022/03/16 13:19:36;;;;;;;;;;;20.50;54.10;;;;;;5050798;28;888;-68
2022/03/16 13:22:12;;;;;;;;;;;20.50;54.10;;;;;;5052029;28;1162;-68
2022/03/16 13:24:40;;;;;;;;;;;20.50;54.10;;;;;;5052290;28;835;-69
2022/03/16 13:27:08;;;;;;;;;;;20.50;54.00;;;;;;5052241;28;889;-68
2022/03/16 13:29:34;;;;;;;;;;;20.50;54.00;;;;;;5050131;28;1906;-68
2022/03/16 13:32:00;;;;;;;;;;;20.50;54.00;;;;;;5052368;28;1253;-67
2022/03/16 13:34:26;;;;;;;;;;;20.50;54.00;;;;;;5050779;28;890;-67
2022/03/16 13:36:51;;;;;;;;;;;20.40;54.00;;;;;;5050824;28;1529;-67
2022/03/16 13:39:18;;;;;;;;;;;20.40;54.00;;;;;;5050910;28;941;-67
2022/03/16 13:42:05;;;;;;;;;;;20.40;54.00;;;;;;5047095;28;2350;-68
2022/03/16 13:44:34;;;;;;;;;;;20.40;54.10;;;;;;5051207;28;1583;-68
2022/03/16 13:46:59;;;;;;;;;;;20.40;54.20;;;;;;5051138;28;827;-69
2022/03/16 13:49:34;;;;;;;;;;;20.30;54.20;;;;;;5051843;28;1935;-68
2022/03/16 13:52:07;;;;;;;;;;;20.30;54.20;;;;;;5052087;28;1367;-70
2022/03/16 13:54:32;;;;;;;;;;;20.30;54.30;;;;;;5050544;28;1164;-69
2022/03/16 13:57:07;;;;;;;;;;;20.30;54.30;;;;;;5052346;28;1207;-68
2022/03/16 13:59:32;;;;;;;;;;;20.30;54.40;;;;;;5051850;28;823;-69
2022/03/16 14:02:31;;;;;;;;;;;20.20;54.50;;;;;;5050156;28;2050;-68
2022/03/16 14:05:04;;;;;;;;;;;20.20;54.50;;;;;;5027892;28;1373;-70
2022/03/16 14:07:33;;;;;;;;;;;20.20;54.70;;;;;;5051332;28;1554;-68
2022/03/16 14:09:59;;;;;;;;;;;20.20;54.80;;;;;;5050645;28;1945;-69
2022/03/16 14:12:25;;;;;;;;;;;20.10;54.80;;;;;;5052189;28;1258;-69
2022/03/16 14:14:58;;;;;;;;;;;20.10;54.90;;;;;;5051391;28;1475;-69
2022/03/16 14:17:38;;;;;;;;;;;20.10;55.00;;;;;;5050824;28;1567;-70
2022/03/16 14:20:13;;;;;;;;;;;20.10;55.10;;;;;;5050515;28;795;-70
2022/03/16 14:22:40;;;;;;;;;;;20.00;55.10;;;;;;5052335;28;1175;-70
2022/03/16 14:25:15;;;;;;;;;;;20.00;55.10;;;;;;5052246;28;1112;-69
2022/03/16 14:27:40;;;;;;;;;;;20.00;55.20;;;;;;5039815;28;1645;-71
2022/03/16 14:30:06;;;;;;;;;;;19.90;55.30;;;;;;5049719;28;1967;-71
2022/03/16 14:32:31;;;;;;;;;;;19.90;55.30;;;;;;5051358;28;1147;-71
2022/03/16 14:34:57;;;;;;;;;;;19.90;55.30;;;;;;5051589;28;752;-70
2022/03/16 14:37:22;;;;;;;;;;;19.90;55.40;;;;;;5051622;28;1428;-72
2022/03/16 14:39:49;;;;;;;;;;;19.90;55.50;;;;;;5047718;28;1807;-71
2022/03/16 14:42:16;;;;;;;;;;;19.90;55.50;;;;;;5050738;28;1424;-72
2022/03/16 14:44:41;;;;;;;;;;;19.80;55.50;;;;;;5051509;28;813;-70
2022/03/16 14:47:07;;;;;;;;;;;19.80;55.60;;;;;;5050232;28;784;-69
2022/03/16 14:49:32;;;;;;;;;;;19.80;55.60;;;;;;5051589;28;1961;-70